Terminal Aerodrome Forecast
Issued by NWS

Current Version | Previous Version | Text Only | Print | Product List | Glossary Off
Versions: 1 2 3 4 5 6 7 8 9 10 11 12 13 14 15 16 17 18

000
FTUS41 KRNK 220539
TAFLWB
TAF
KLWB 220539Z 2206/2306 VRB03KT P6SM VCSH OVC035
      TEMPO 2207/2209 4SM -SHRA BR OVC015
     FM221000 00000KT 2SM BR OVC020
      TEMPO 2210/2212 1SM -SHRA BR OVC009
     FM221200 VRB03KT 4SM -SHRA BR OVC015
     FM221900 16005KT 5SM SHRA OVC025
     FM230000 07006KT 5SM -SHRA BR OVC012=

USA.gov is the U.S. government's official web portal to all federal, state and local government web resources and services.